10°C Temp
8°C Dewpoint
% Humidity
Temperature
0 KM/H
MPH
KTS
Calm
Due North

Wind Speed
Clear
Conditions
Pressure 1018.92 (hPa) - 30.09 (in)
Visibility 5.6 (mi) - 9.0 (km)

Current Conditions
YPPH
Location 20(km)
Metar :YPPH 181900Z 00000KT 9000 NSC 10/08 Q1019
Mon 19th April 03:00 am

Airport
  Metar Aviation API Data Provided by https://www.checkwx.com/ PHP scripts by weather34.com ©2021